首页
METAR-TAF:

METAR-TAF

机场 :

伊爾庫茨克國際機場

伊爾庫茨克, 俄罗斯

纬度: 52-16N, 经度: 104-19E, 海拔: 513米

当前天气观测

该预报发布于27分钟前的04:00 UTC
风速2节,风向多变
温度 -20°C
湿度 84%
气压 1022 hPa
能見度: 0150
冻雾

METAR: UIII 180400Z VRB01MPS 0200 0150S R30/0200N FZFG VV002 M20/M22 Q1022 R30/820350 NOSIG RMK QBB060 QFE721/0962

时间: 12:27 (04:27 UTC)

预报

该预报发布于27分钟前的04:00 UTC
预报有效从18日的 04点(UTC)到 19日的 03点(UTC)
风速2节,风向多变
能見度: 3100
散云层高于300英尺
轻雾, 烟
短暂存在
从 18日的 04点(UTC)到 18日的 06点(UTC)
能見度: 0500
层高于100英尺
冻雾
成为
从 18日的 06点(UTC)到 18日的 07点(UTC)

TAF: UIII 180400Z 1804/1903 VRB01MPS 3100 BR FU SCT003 TEMPO 1804/1806 0500 FZFG VV001 BECMG 1806/1807 NSC

超过4000个机场的气象观测和天气预报(METAR&TAF报告)。

可查询的气象台以黄色和红色小点在地图上表示。

将鼠标移到小点上方,可查看气象台名称。

然后点击查看天气观测和预报。

如需切换地图:点击带黑十字的绿色按钮放大地图;点击带横线的绿色按钮缩小地图;或者点击绿色箭头查看邻近地区的地图。


METAR-TAF: